Time;durP1;ratioP1;P1;durP2;ratioP2;P2;SDS_P1;SDS_P2;PMS_P1;PMS_P2;Temp;Humidity;BMP_temperature;BMP_pressure;BME280_temperature;BME280_humidity;BME280_pressure;Samples;Min_cycle;Max_cycle;Signal;HPM_P1;HPM_P2
2022/12/20 00:02:23;;;;;;;17.37;8.80;;;;;;;5.92;100.00;101089.97;7389201;19;20415;-57
2022/12/20 00:04:52;;;;;;;14.43;8.03;;;;;;;5.93;100.00;101089.16;7393867;19;20865;-60
2022/12/20 00:07:22;;;;;;;12.27;7.07;;;;;;;5.91;100.00;101083.06;7392169;19;20408;-58
2022/12/20 00:09:51;;;;;;;20.97;9.20;;;;;;;5.91;100.00;101073.69;7391856;19;20384;-59
2022/12/20 00:12:23;;;;;;;14.93;7.10;;;;;;;5.92;100.00;101072.94;7389475;19;21188;-59
2022/12/20 00:14:53;;;;;;;18.17;8.40;;;;;;;6.01;100.00;101077.75;7389937;19;20398;-59
2022/12/20 00:17:23;;;;;;;17.83;8.20;;;;;;;5.91;100.00;101078.81;7389291;19;21288;-59
2022/12/20 00:19:53;;;;;;;16.63;8.10;;;;;;;5.95;100.00;101082.50;7391555;19;20408;-59
2022/12/20 00:22:22;;;;;;;12.87;7.17;;;;;;;6.02;100.00;101066.78;7388914;19;20420;-58
2022/12/20 00:24:52;;;;;;;15.70;7.77;;;;;;;6.02;100.00;101066.78;7391393;19;20417;-59
2022/12/20 00:27:24;;;;;;;16.90;6.97;;;;;;;6.04;100.00;101059.16;7389635;19;20407;-58
2022/12/20 00:29:53;;;;;;;19.73;7.87;;;;;;;6.06;100.00;101073.84;7391151;19;20385;-56
2022/12/20 00:32:23;;;;;;;14.63;8.37;;;;;;;6.09;100.00;101068.03;7387429;19;20444;-56
2022/12/20 00:34:52;;;;;;;15.20;6.80;;;;;;;6.15;100.00;101070.13;7389858;19;20514;-58
2022/12/20 00:37:22;;;;;;;13.80;8.10;;;;;;;6.15;100.00;101067.56;7387987;19;20998;-59
2022/12/20 00:39:52;;;;;;;12.93;7.13;;;;;;;6.13;100.00;101064.00;7392012;19;20407;-60
2022/12/20 00:42:24;;;;;;;10.30;6.00;;;;;;;6.12;100.00;101057.09;7387980;19;20428;-56
2022/12/20 00:44:54;;;;;;;16.47;8.23;;;;;;;6.17;100.00;101053.16;7388410;19;20384;-58
2022/12/20 00:47:23;;;;;;;17.43;8.70;;;;;;;6.13;100.00;101054.66;7386772;19;20943;-58
2022/12/20 00:49:53;;;;;;;15.90;6.97;;;;;;;6.17;100.00;101045.47;7389881;19;20397;-56
2022/12/20 00:52:22;;;;;;;13.93;7.90;;;;;;;6.19;100.00;101047.34;7387791;19;20432;-58
2022/12/20 00:54:52;;;;;;;13.77;7.07;;;;;;;6.21;100.00;101047.47;7386098;19;20402;-58
2022/12/20 00:57:24;;;;;;;13.03;6.47;;;;;;;6.17;100.00;101048.03;7387764;19;20788;-58
2022/12/20 00:59:54;;;;;;;10.67;5.57;;;;;;;6.16;100.00;101034.34;7389945;19;20919;-59
2022/12/20 01:02:23;;;;;;;13.57;7.70;;;;;;;6.17;100.00;101035.22;7394480;19;20409;-58
2022/12/20 01:04:53;;;;;;;15.33;8.43;;;;;;;6.15;100.00;101031.69;7397445;19;20409;-58
2022/12/20 01:07:24;;;;;;;13.60;8.17;;;;;;;6.08;100.00;101026.19;7397941;19;20412;-60
2022/12/20 01:09:54;;;;;;;14.53;7.03;;;;;;;6.07;100.00;101029.50;7397355;19;20391;-58
2022/12/20 01:12:26;;;;;;;13.20;6.10;;;;;;;6.11;100.00;101029.72;7393366;19;20428;-57
2022/12/20 01:14:55;;;;;;;13.90;7.47;;;;;;;6.07;100.00;101033.75;7395532;19;20397;-59
2022/12/20 01:17:25;;;;;;;14.03;7.27;;;;;;;6.02;100.00;101029.97;7395441;19;20423;-53
2022/12/20 01:19:54;;;;;;;13.73;6.43;;;;;;;6.00;100.00;101034.13;7397543;19;20727;-58
2022/12/20 01:22:24;;;;;;;14.17;7.43;;;;;;;5.98;100.00;101039.13;7395131;19;20433;-57
2022/12/20 01:24:54;;;;;;;11.67;6.87;;;;;;;6.00;100.00;101041.81;7402464;19;20405;-60
2022/12/20 01:27:26;;;;;;;20.40;8.40;;;;;;;5.98;100.00;101030.56;7395110;19;20408;-61
2022/12/20 01:29:55;;;;;;;17.30;8.33;;;;;;;5.99;100.00;101022.97;7396903;19;20395;-57
2022/12/20 01:32:25;;;;;;;14.37;7.10;;;;;;;5.99;100.00;101025.53;7395079;19;21182;-55
2022/12/20 01:34:55;;;;;;;11.23;5.60;;;;;;;5.98;100.00;101017.75;7395599;19;20388;-60
2022/12/20 01:37:25;;;;;;;14.00;8.00;;;;;;;5.94;100.00;101017.56;7395530;19;20411;-58
2022/12/20 01:39:54;;;;;;;13.50;6.80;;;;;;;5.99;100.00;101017.84;7396552;19;20424;-58
2022/12/20 01:42:27;;;;;;;12.43;7.37;;;;;;;6.05;100.00;101015.72;7393915;19;20431;-61
2022/12/20 01:45:00;;;;;;;9.57;5.40;;;;;;;6.09;100.00;101014.22;7396642;19;20387;-58
2022/12/20 01:47:32;;;;;;;15.70;8.10;;;;;;;6.13;100.00;101000.84;7394405;19;20505;-61
2022/12/20 01:50:03;;;;;;;12.00;6.80;;;;;;;6.10;100.00;100998.06;7396454;19;20396;-61
2022/12/20 01:52:35;;;;;;;16.07;7.80;;;;;;;6.19;100.00;101003.78;7393150;19;20417;-59
2022/12/20 01:55:09;;;;;;;12.20;6.63;;;;;;;6.22;100.00;100988.59;7394985;19;20760;-61
2022/12/20 01:57:44;;;;;;;14.57;8.10;;;;;;;6.24;100.00;100988.72;7394793;19;20444;-60
2022/12/20 02:00:15;;;;;;;13.53;7.60;;;;;;;6.28;100.00;100983.00;7395930;19;20390;-60
2022/12/20 02:02:45;;;;;;;10.43;6.00;;;;;;;6.31;100.00;100988.28;7393559;19;20421;-58
2022/12/20 02:05:16;;;;;;;14.27;6.97;;;;;;;6.33;100.00;100986.75;7395696;19;20476;-60
2022/12/20 02:07:47;;;;;;;9.23;4.87;;;;;;;6.33;100.00;100988.41;7393186;19;20399;-60
2022/12/20 02:10:18;;;;;;;14.90;7.10;;;;;;;6.36;100.00;100986.00;7395673;19;20392;-57
2022/12/20 02:12:53;;;;;;;10.70;6.10;;;;;;;6.35;100.00;100985.16;7390870;19;20459;-59
2022/12/20 02:15:33;;;;;;;13.93;7.40;;;;;;;6.40;100.00;100984.56;7394706;19;20431;-61
2022/12/20 02:18:13;;;;;;;14.30;7.80;;;;;;;6.45;100.00;100986.59;7393492;19;20447;-59
2022/12/20 02:20:55;;;;;;;13.30;7.90;;;;;;;6.50;100.00;100981.75;7395748;19;20406;-62
2022/12/20 02:23:38;;;;;;;13.90;7.03;;;;;;;6.49;100.00;100977.44;7389423;19;20417;-61
2022/12/20 02:26:23;;;;;;;17.93;7.10;;;;;;;6.51;100.00;100973.25;7391604;19;20453;-60
2022/12/20 02:29:11;;;;;;;9.67;5.40;;;;;;;6.53;100.00;100968.25;7390238;19;20449;-59
2022/12/20 02:31:46;;;;;;;12.50;6.27;;;;;;;6.58;100.00;100967.75;7398161;19;20731;-59
2022/12/20 02:34:15;;;;;;;13.93;6.97;;;;;;;6.64;100.00;100966.31;7395030;19;20437;-60
2022/12/20 02:36:45;;;;;;;10.53;6.50;;;;;;;6.63;100.00;100952.66;7390761;19;20429;-60
2022/12/20 02:39:16;;;;;;;11.97;7.50;;;;;;;6.66;100.00;100949.38;7394391;19;20439;-56
2022/12/20 02:41:48;;;;;;;12.20;7.40;;;;;;;6.69;100.00;100959.81;7394583;19;20931;-61
2022/12/20 02:47:07;;;;;;;12.13;6.40;;;;;;;6.76;100.00;100951.69;7388557;19;22432;-61
2022/12/20 02:49:40;;;;;;;10.73;6.07;;;;;;;6.77;100.00;100943.19;7394687;19;20755;-58
2022/12/20 02:52:10;;;;;;;13.13;7.27;;;;;;;6.83;100.00;100947.84;7391804;19;20429;-60
2022/12/20 02:54:40;;;;;;;12.00;6.80;;;;;;;6.83;100.00;100942.69;7394920;19;21242;-61
2022/12/20 02:57:15;;;;;;;12.57;6.73;;;;;;;6.87;100.00;100939.53;7392763;19;20421;-58
2022/12/20 02:59:49;;;;;;;13.20;7.00;;;;;;;6.97;100.00;100928.13;7394599;19;20389;-59
2022/12/20 03:02:21;;;;;;;12.30;6.50;;;;;;;6.93;100.00;100923.59;7392656;19;20767;-60
2022/12/20 03:04:51;;;;;;;14.67;6.97;;;;;;;6.93;100.00;100918.47;7394400;19;20464;-59
2022/12/20 03:07:21;;;;;;;14.00;6.60;;;;;;;6.92;100.00;100921.84;7392300;19;20426;-59
2022/12/20 03:09:51;;;;;;;9.23;4.63;;;;;;;6.99;100.00;100923.97;7394258;19;20382;-60
2022/12/20 03:12:20;;;;;;;10.67;6.60;;;;;;;7.08;100.00;100913.38;7392005;19;20402;-62
2022/12/20 03:14:50;;;;;;;12.90;6.43;;;;;;;7.06;100.00;100920.06;7393833;19;20393;-60
2022/12/20 03:17:22;;;;;;;9.43;4.70;;;;;;;7.11;100.00;100914.44;7391768;19;20759;-56
2022/12/20 03:19:51;;;;;;;11.13;5.27;;;;;;;7.19;100.00;100911.41;7393843;19;20759;-57
2022/12/20 03:22:22;;;;;;;10.93;6.17;;;;;;;7.14;100.00;100912.03;7390932;19;20414;-59
2022/12/20 03:24:51;;;;;;;16.23;5.97;;;;;;;7.17;100.00;100916.47;7394733;19;20395;-62
2022/12/20 03:27:21;;;;;;;10.57;6.40;;;;;;;7.22;100.00;100922.75;7391053;19;20405;-60
2022/12/20 03:29:51;;;;;;;10.67;6.27;;;;;;;7.24;100.00;100916.00;7392924;19;20398;-61
2022/12/20 03:32:23;;;;;;;15.93;5.27;;;;;;;7.32;100.00;100913.91;7390719;19;20421;-60
2022/12/20 03:34:52;;;;;;;10.83;6.40;;;;;;;7.32;100.00;100908.75;7392653;19;20411;-60
2022/12/20 03:37:22;;;;;;;11.47;5.40;;;;;;;7.34;100.00;100919.13;7390405;19;20515;-61
2022/12/20 03:39:54;;;;;;;11.10;5.50;;;;;;;7.30;100.00;100920.63;7392479;19;20414;-53
2022/12/20 03:42:23;;;;;;;11.77;6.17;;;;;;;7.34;100.00;100917.44;7390764;19;20410;-63
2022/12/20 03:44:53;;;;;;;14.83;8.93;;;;;;;7.38;100.00;100913.38;7393491;19;20389;-61
2022/12/20 03:47:25;;;;;;;8.63;4.63;;;;;;;7.37;100.00;100896.19;7390983;19;20417;-61
2022/12/20 03:49:55;;;;;;;9.30;5.83;;;;;;;7.36;100.00;100902.13;7392841;19;20376;-61
2022/12/20 03:52:24;;;;;;;13.00;5.70;;;;;;;7.42;100.00;100900.78;7388203;19;20416;-61
2022/12/20 03:54:54;;;;;;;12.87;6.17;;;;;;;7.48;100.00;100900.25;7392694;19;20399;-63
2022/12/20 03:57:23;;;;;;;10.73;5.73;;;;;;;7.47;100.00;100902.72;7390595;19;20744;-62
2022/12/20 03:59:53;;;;;;;8.87;5.37;;;;;;;7.60;100.00;100899.19;7392444;19;20395;-61
2022/12/20 04:02:25;;;;;;;10.03;5.60;;;;;;;7.56;100.00;100888.75;7390651;19;20429;-57
2022/12/20 04:04:55;;;;;;;8.33;5.17;;;;;;;7.56;100.00;100877.59;7393741;19;20907;-60
2022/12/20 04:07:24;;;;;;;13.87;6.20;;;;;;;7.56;100.00;100893.00;7389785;19;20423;-60
2022/12/20 04:09:53;;;;;;;10.93;5.90;;;;;;;7.61;100.00;100894.13;7391491;19;20386;-57
2022/12/20 04:12:23;;;;;;;8.83;5.60;;;;;;;7.64;100.00;100898.56;7390053;19;20410;-56
2022/12/20 04:14:52;;;;;;;8.77;5.70;;;;;;;7.69;100.00;100903.16;7392344;19;20398;-62
2022/12/20 04:17:25;;;;;;;8.57;4.43;;;;;;;7.68;100.00;100905.63;7388503;19;20407;-61
2022/12/20 04:19:54;;;;;;;10.50;5.53;;;;;;;7.68;100.00;100898.81;7391689;19;20367;-58
2022/12/20 04:22:23;;;;;;;11.23;5.33;;;;;;;7.66;100.00;100897.84;7389702;19;20438;-58
2022/12/20 04:24:53;;;;;;;13.80;5.90;;;;;;;7.70;100.00;100898.91;7392257;19;20400;-60
2022/12/20 04:27:22;;;;;;;13.20;5.97;;;;;;;7.74;100.00;100889.69;7389519;19;20405;-54
2022/12/20 04:29:52;;;;;;;12.90;5.67;;;;;;;7.73;100.00;100890.50;7391229;19;20397;-56
2022/12/20 04:32:21;;;;;;;9.33;5.83;;;;;;;7.75;100.00;100883.75;7367824;19;20391;-60
2022/12/20 04:34:53;;;;;;;11.43;6.50;;;;;;;7.81;100.00;100890.09;7389959;19;20746;-58
2022/12/20 04:37:23;;;;;;;12.20;5.97;;;;;;;7.76;100.00;100886.41;7389987;19;20439;-60
2022/12/20 04:39:53;;;;;;;8.70;5.10;;;;;;;7.75;100.00;100883.75;7390492;19;20410;-59
2022/12/20 04:42:23;;;;;;;12.00;5.60;;;;;;;7.82;100.00;100888.41;7386243;19;20415;-57
2022/12/20 04:44:53;;;;;;;8.50;5.40;;;;;;;7.86;100.00;100872.38;7390617;19;20407;-58
2022/12/20 04:47:22;;;;;;;14.07;5.63;;;;;;;7.85;100.00;100878.31;7388558;19;20462;-55
2022/12/20 04:49:54;;;;;;;12.17;5.50;;;;;;;7.86;100.00;100872.38;7390490;19;20383;-58
2022/12/20 04:55:13;;;;;;;11.63;5.90;;;;;;;7.85;100.00;100880.88;7390485;19;20797;-57
2022/12/20 04:57:43;;;;;;;9.17;4.43;;;;;;;7.82;100.00;100880.72;7387127;19;20422;-55
2022/12/20 05:00:14;;;;;;;10.30;6.30;;;;;;;7.91;100.00;100865.81;7389891;19;20392;-60
2022/12/20 05:02:44;;;;;;;5.03;2.60;;;;;;;7.90;100.00;100876.88;7387749;19;20431;-57
2022/12/20 05:05:16;;;;;;;10.47;4.53;;;;;;;7.83;100.00;100872.19;7391366;19;20410;-55
2022/12/20 05:07:46;;;;;;;12.03;5.17;;;;;;;7.77;100.00;100869.28;7387792;19;20964;-59
2022/12/20 05:10:15;;;;;;;8.77;4.17;;;;;;;7.73;100.00;100862.25;7389830;19;20396;-59
2022/12/20 05:12:45;;;;;;;10.87;5.90;;;;;;;7.69;100.00;100854.34;7387503;19;20415;-58
2022/12/20 05:15:14;;;;;;;15.53;6.00;;;;;;;7.60;100.00;100845.25;7390062;19;20411;-60
2022/12/20 05:17:44;;;;;;;17.20;6.93;;;;;;;7.61;100.00;100837.63;7385943;19;20761;-59
2022/12/20 05:20:17;;;;;;;10.87;6.17;;;;;;;7.53;100.00;100820.91;7389791;19;20399;-60
2022/12/20 05:28:10;;;;;;;12.60;6.00;;;;;;;7.45;100.00;100781.09;7385227;19;20447;-59
2022/12/20 05:30:39;;;;;;;10.17;6.20;;;;;;;7.43;100.00;100765.59;7393041;19;20396;-61
2022/12/20 05:33:09;;;;;;;11.47;6.50;;;;;;;7.43;100.00;100748.53;7387282;19;20445;-56
2022/12/20 05:35:43;;;;;;;10.40;6.07;;;;;;;7.42;100.00;100746.78;7389342;19;20768;-62
2022/12/20 05:38:13;;;;;;;9.00;5.83;;;;;;;7.45;100.00;100735.78;7386203;19;20436;-59
2022/12/20 05:40:43;;;;;;;9.47;5.60;;;;;;;7.45;100.00;100733.22;7389394;19;20396;-62
2022/12/20 05:43:12;;;;;;;10.50;6.17;;;;;;;7.46;100.00;100716.09;7387655;19;20413;-61
2022/12/20 05:45:42;;;;;;;16.50;5.70;;;;;;;7.47;100.00;100712.75;7388472;19;20425;-59
2022/12/20 05:48:11;;;;;;;8.63;5.33;;;;;;;7.50;100.00;100702.66;7392611;19;20983;-56
2022/12/20 05:50:45;;;;;;;9.30;5.73;;;;;;;7.47;100.00;100705.94;7396115;19;20394;-62
2022/12/20 05:53:15;;;;;;;10.30;6.30;;;;;;;7.52;100.00;100685.63;7394130;19;20427;-61
2022/12/20 05:55:45;;;;;;;10.20;6.37;;;;;;;7.50;100.00;100694.94;7395574;19;20422;-56
2022/12/20 05:58:15;;;;;;;13.00;4.37;;;;;;;7.50;100.00;100692.38;7392614;19;20428;-57
2022/12/20 06:00:46;;;;;;;11.30;5.73;;;;;;;7.54;100.00;100676.34;7395786;19;20980;-61
2022/12/20 06:03:17;;;;;;;9.70;5.93;;;;;;;7.50;100.00;100676.97;7396846;19;20999;-60
2022/12/20 06:05:50;;;;;;;11.13;6.20;;;;;;;7.51;100.00;100673.59;7395428;19;20429;-58
2022/12/20 06:08:20;;;;;;;12.93;7.57;;;;;;;7.52;100.00;100680.50;7393193;19;20430;-56
2022/12/20 06:10:50;;;;;;;11.27;5.13;;;;;;;7.48;100.00;100683.72;7396089;19;20463;-58
2022/12/20 06:13:20;;;;;;;8.80;5.60;;;;;;;7.50;100.00;100674.41;7392973;19;20449;-61
2022/12/20 06:15:49;;;;;;;9.10;5.53;;;;;;;7.48;100.00;100687.16;7395224;19;20442;-60
2022/12/20 06:18:19;;;;;;;10.57;5.40;;;;;;;7.53;100.00;100684.81;7391887;19;20451;-60
2022/12/20 06:20:54;;;;;;;10.07;5.80;;;;;;;7.51;100.00;100683.88;7395319;19;20408;-61
2022/12/20 06:23:24;;;;;;;11.00;6.03;;;;;;;7.56;100.00;100678.19;7392173;19;20430;-58
2022/12/20 06:25:54;;;;;;;12.00;6.87;;;;;;;7.60;100.00;100668.06;7394315;19;20813;-62
2022/12/20 06:28:23;;;;;;;10.53;5.40;;;;;;;7.65;100.00;100670.06;7391809;19;20772;-60
2022/12/20 06:30:56;;;;;;;11.73;5.90;;;;;;;7.69;100.00;100653.13;7395016;19;20388;-61
2022/12/20 06:33:26;;;;;;;14.20;5.70;;;;;;;7.71;100.00;100661.81;7393212;19;20415;-61
2022/12/20 06:35:58;;;;;;;8.27;5.10;;;;;;;7.69;100.00;100659.16;7393918;19;20433;-58
2022/12/20 06:38:28;;;;;;;9.87;5.87;;;;;;;7.70;100.00;100645.50;7390745;19;20428;-61
2022/12/20 06:40:57;;;;;;;10.07;5.40;;;;;;;7.73;100.00;100633.66;7395355;19;20418;-56
2022/12/20 06:43:27;;;;;;;8.47;5.53;;;;;;;7.73;100.00;100619.09;7391720;19;20411;-61
2022/12/20 06:45:56;;;;;;;11.70;6.90;;;;;;;7.80;100.00;100612.59;7393902;19;20539;-63
2022/12/20 06:48:26;;;;;;;13.93;7.30;;;;;;;7.80;100.00;100603.19;7391074;19;20419;-58
2022/12/20 06:50:55;;;;;;;8.97;5.23;;;;;;;7.77;100.00;100623.59;7394931;19;20758;-56
2022/12/20 06:53:27;;;;;;;8.27;5.23;;;;;;;7.81;100.00;100628.06;7391465;19;20431;-60
2022/12/20 06:55:57;;;;;;;13.30;5.60;;;;;;;7.85;100.00;100613.72;7393432;19;20928;-60
2022/12/20 06:58:27;;;;;;;7.73;5.80;;;;;;;7.87;100.00;100622.38;7389702;19;20415;-61
2022/12/20 07:00:56;;;;;;;9.17;5.20;;;;;;;7.90;100.00;100632.78;7394556;19;20391;-60
2022/12/20 07:03:26;;;;;;;11.97;6.17;;;;;;;7.90;100.00;100629.38;7391175;19;20448;-58
2022/12/20 07:05:56;;;;;;;7.83;4.60;;;;;;;7.92;100.00;100636.34;7393308;19;20494;-60
2022/12/20 07:08:28;;;;;;;4.60;2.40;;;;;;;7.92;100.00;100649.19;7390202;19;20411;-56
2022/12/20 07:10:58;;;;;;;7.03;4.17;;;;;;;7.96;100.00;100648.53;7394143;19;20409;-59
2022/12/20 07:13:27;;;;;;;11.80;6.20;;;;;;;7.95;100.00;100672.47;7391594;19;20415;-61
2022/12/20 07:16:00;;;;;;;12.93;5.97;;;;;;;7.96;100.00;100669.06;7393055;19;20418;-59
2022/12/20 07:18:30;;;;;;;10.90;5.50;;;;;;;7.95;100.00;100680.16;7391301;19;20422;-60
2022/12/20 07:21:01;;;;;;;8.80;4.00;;;;;;;7.86;100.00;100681.38;7393811;19;20403;-59
2022/12/20 07:23:33;;;;;;;11.37;5.90;;;;;;;7.88;100.00;100675.53;7390919;19;20418;-59
2022/12/20 07:26:03;;;;;;;9.97;5.10;;;;;;;7.88;100.00;100677.19;7392963;19;20426;-59
2022/12/20 07:28:33;;;;;;;9.23;3.67;;;;;;;7.90;100.00;100671.34;7390607;19;20430;-60
2022/12/20 07:31:03;;;;;;;12.30;6.53;;;;;;;7.90;100.00;100658.50;7393488;19;20383;-59
2022/12/20 07:33:33;;;;;;;9.40;5.60;;;;;;;7.92;100.00;100651.75;7390875;19;20418;-57
2022/12/20 07:36:03;;;;;;;11.00;6.33;;;;;;;7.90;100.00;100655.91;7395019;19;20410;-59
2022/12/20 07:38:36;;;;;;;9.77;6.60;;;;;;;7.90;100.00;100650.78;7387857;19;20427;-58
2022/12/20 07:41:09;;;;;;;5.83;3.40;;;;;;;7.87;100.00;100660.03;7392793;19;20399;-60
2022/12/20 07:43:38;;;;;;;13.07;5.93;;;;;;;7.89;100.00;100638.75;7389917;19;20762;-58
2022/12/20 07:46:10;;;;;;;10.30;5.77;;;;;;;7.92;100.00;100643.16;7391744;19;20459;-61
2022/12/20 07:48:40;;;;;;;9.70;7.20;;;;;;;7.88;100.00;100649.84;7389349;19;20970;-59
2022/12/20 07:51:12;;;;;;;15.90;7.13;;;;;;;7.86;100.00;100641.19;7392487;19;20392;-58
2022/12/20 07:53:46;;;;;;;12.93;6.70;;;;;;;7.87;100.00;100653.22;7388194;19;20430;-56
2022/12/20 07:56:17;;;;;;;8.87;5.10;;;;;;;7.87;100.00;100658.34;7390956;19;20447;-57
2022/12/20 07:58:46;;;;;;;12.73;6.70;;;;;;;7.88;100.00;100664.34;7387726;19;20453;-60
2022/12/20 08:01:16;;;;;;;12.07;6.10;;;;;;;7.84;100.00;100669.34;7392532;19;20399;-59
2022/12/20 08:03:47;;;;;;;10.50;5.10;;;;;;;7.84;100.00;100646.22;7389182;19;20411;-58
2022/12/20 08:06:17;;;;;;;8.33;4.03;;;;;;;7.87;100.00;100653.22;7391130;19;20427;-57
2022/12/20 08:08:53;;;;;;;14.50;7.03;;;;;;;7.93;100.00;100640.69;7388856;19;20418;-60
2022/12/20 08:11:24;;;;;;;12.90;6.33;;;;;;;7.93;100.00;100653.53;7392568;19;20394;-58
2022/12/20 08:13:54;;;;;;;11.77;4.87;;;;;;;8.02;100.00;100647.97;7388860;19;20418;-60
2022/12/20 08:16:26;;;;;;;11.67;5.60;;;;;;;8.04;100.00;100656.63;7390924;19;20415;-58
2022/12/20 08:18:56;;;;;;;12.10;6.70;;;;;;;8.09;100.00;100654.28;7386849;19;20434;-60
2022/12/20 08:21:25;;;;;;;13.73;7.50;;;;;;;8.06;100.00;100662.72;7391928;19;20383;-58
2022/12/20 08:23:57;;;;;;;10.47;6.07;;;;;;;8.07;100.00;100671.31;7389029;19;20953;-59
2022/12/20 08:26:27;;;;;;;11.40;6.70;;;;;;;8.16;100.00;100664.06;7391284;19;20422;-59
2022/12/20 08:28:57;;;;;;;9.33;5.67;;;;;;;8.22;100.00;100672.06;7388897;19;20447;-57
2022/12/20 08:31:26;;;;;;;10.80;5.70;;;;;;;8.30;100.00;100672.47;7392406;19;20379;-56
2022/12/20 08:33:57;;;;;;;9.97;5.90;;;;;;;8.31;100.00;100691.34;7388874;19;20425;-61
2022/12/20 08:36:26;;;;;;;10.57;5.73;;;;;;;8.30;100.00;100697.31;7389777;19;20777;-58
2022/12/20 08:38:58;;;;;;;11.93;6.10;;;;;;;8.31;100.00;100712.78;7387708;19;20439;-58
2022/12/20 08:41:28;;;;;;;10.07;6.00;;;;;;;8.37;100.00;100714.81;7392746;19;20413;-59
2022/12/20 08:43:59;;;;;;;8.87;5.40;;;;;;;8.46;100.00;100730.69;7386325;19;20462;-60
2022/12/20 08:46:28;;;;;;;5.77;2.93;;;;;;;8.48;100.00;100734.22;7389069;19;20462;-58
2022/12/20 08:48:58;;;;;;;9.77;5.60;;;;;;;8.52;100.00;100748.16;7385918;19;20963;-59
2022/12/20 08:51:27;;;;;;;8.63;4.80;;;;;;;8.55;100.00;100755.13;7392851;19;21219;-58
2022/12/20 08:54:01;;;;;;;9.30;4.53;;;;;;;8.50;100.00;100776.31;7388941;19;20455;-62
2022/12/20 08:56:31;;;;;;;6.23;3.67;;;;;;;8.57;100.00;100777.53;7389660;19;20808;-57
2022/12/20 08:59:00;;;;;;;11.13;5.60;;;;;;;8.66;100.00;100786.53;7384738;19;20806;-60
2022/12/20 09:01:32;;;;;;;17.70;6.10;;;;;;;8.67;100.00;100796.00;7390837;19;20871;-59
2022/12/20 09:04:02;;;;;;;12.00;6.20;;;;;;;8.67;100.00;100789.16;7386050;19;20411;-60
2022/12/20 09:06:32;;;;;;;12.30;6.30;;;;;;;8.65;100.00;100803.63;7389776;19;20431;-60
2022/12/20 09:09:05;;;;;;;7.83;4.73;;;;;;;8.61;100.00;100814.59;7386477;19;20525;-61
2022/12/20 09:11:35;;;;;;;22.67;8.83;;;;;;;8.64;100.00;100817.31;7389980;19;20462;-60
2022/12/20 09:14:06;;;;;;;14.30;5.10;;;;;;;8.65;100.00;100816.50;7388993;19;20784;-60
2022/12/20 09:16:36;;;;;;;10.67;5.13;;;;;;;8.71;100.00;100824.53;7388724;19;20780;-59
2022/12/20 09:19:06;;;;;;;8.83;5.90;;;;;;;8.68;100.00;100829.53;7385273;19;20992;-59
2022/12/20 09:21:36;;;;;;;14.60;6.40;;;;;;;8.72;100.00;100828.00;7391612;19;20387;-59
2022/12/20 09:24:09;;;;;;;10.97;5.50;;;;;;;8.68;100.00;100828.63;7396196;19;20471;-61
2022/12/20 09:26:39;;;;;;;13.20;6.57;;;;;;;8.72;100.00;100839.16;7396070;19;20433;-57
2022/12/20 09:29:09;;;;;;;10.03;3.37;;;;;;;8.70;100.00;100845.03;7396922;19;20502;-59
2022/12/20 09:31:38;;;;;;;12.57;5.70;;;;;;;8.81;100.00;100845.59;7394656;19;20722;-60
2022/12/20 09:34:09;;;;;;;11.37;6.20;;;;;;;8.78;100.00;100843.75;7395525;19;20963;-58
2022/12/20 09:36:38;;;;;;;23.30;6.57;;;;;;;8.84;100.00;100863.75;7395584;19;20414;-58
2022/12/20 09:39:10;;;;;;;6.13;3.30;;;;;;;8.88;100.00;100850.22;7392426;19;20459;-62
2022/12/20 09:41:41;;;;;;;6.00;3.77;;;;;;;8.83;100.00;100851.69;7397007;19;21076;-61
2022/12/20 09:44:16;;;;;;;10.63;5.87;;;;;;;8.83;100.00;100854.25;7396089;19;20439;-61
2022/12/20 09:46:51;;;;;;;12.10;6.20;;;;;;;8.83;100.00;100856.84;7396072;19;20449;-59
2022/12/20 09:49:21;;;;;;;7.40;4.40;;;;;;;8.82;100.00;100858.50;7395623;19;20729;-58
2022/12/20 09:52:17;;;;;;;14.03;5.43;;;;;;;8.95;100.00;100851.41;7394129;19;20391;-57
2022/12/20 09:54:56;;;;;;;16.80;6.00;;;;;;;8.90;100.00;100848.59;7396712;19;20395;-61
2022/12/20 09:57:30;;;;;;;10.80;6.33;;;;;;;8.86;100.00;100846.69;7392525;19;20494;-58
2022/12/20 10:00:00;;;;;;;10.20;5.80;;;;;;;8.83;100.00;100854.25;7393690;19;20391;-60
2022/12/20 10:02:31;;;;;;;11.10;4.73;;;;;;;8.74;100.00;100847.84;7393776;19;20763;-55
2022/12/20 10:05:25;;;;;;;8.80;5.97;;;;;;;8.74;100.00;100835.00;7396102;19;20767;-56
2022/12/20 10:07:57;;;;;;;12.10;6.30;;;;;;;8.66;100.00;100828.56;7393294;19;20434;-60
2022/12/20 10:10:59;;;;;;;13.87;6.30;;;;;;;8.66;100.00;100823.41;7395445;19;20407;-61
2022/12/20 10:13:48;;;;;;;6.13;3.10;;;;;;;8.53;100.00;100818.44;7391774;19;20410;-60
2022/12/20 10:16:31;;;;;;;14.63;8.10;;;;;;;8.44;100.00;100804.28;7398167;19;20432;-61
2022/12/20 10:19:07;;;;;;;12.50;5.80;;;;;;;8.40;100.00;100779.22;7390651;19;20760;-59
2022/12/20 10:21:44;;;;;;;19.37;6.40;;;;;;;8.37;100.00;100768.78;7396030;19;20794;-60
2022/12/20 10:24:18;;;;;;;12.70;6.40;;;;;;;8.37;100.00;100750.78;7393248;19;20411;-60
2022/12/20 10:26:51;;;;;;;12.00;6.93;;;;;;;8.37;100.00;100722.50;7391656;19;20443;-60
2022/12/20 10:29:21;;;;;;;12.47;7.53;;;;;;;8.39;100.00;100710.59;7394634;19;20384;-57
2022/12/20 10:31:51;;;;;;;12.40;6.50;;;;;;;8.46;100.00;100697.25;7392014;19;20388;-59
2022/12/20 10:34:21;;;;;;;15.30;7.43;;;;;;;8.47;100.00;100691.28;7393323;19;20399;-61
2022/12/20 10:36:51;;;;;;;16.47;7.63;;;;;;;8.48;100.00;100679.34;7391346;19;20430;-59
2022/12/20 10:39:41;;;;;;;13.50;8.00;;;;;;;8.52;100.00;100671.00;7393584;19;20392;-57
2022/12/20 10:42:28;;;;;;;21.10;6.63;;;;;;;8.61;100.00;100665.44;7391581;19;20423;-59
2022/12/20 10:44:58;;;;;;;13.87;6.57;;;;;;;8.65;100.00;100662.16;7394988;19;20395;-61
2022/12/20 10:47:37;;;;;;;19.13;7.90;;;;;;;8.71;100.00;100654.75;7391939;19;20745;-61
2022/12/20 10:50:12;;;;;;;14.30;7.73;;;;;;;8.79;100.00;100660.28;7394564;19;20391;-61
2022/12/20 10:52:41;;;;;;;12.17;6.70;;;;;;;8.83;100.00;100666.44;7392015;19;20402;-62
2022/12/20 10:55:37;;;;;;;19.57;7.60;;;;;;;8.87;100.00;100676.06;7394479;19;20392;-61
2022/12/20 10:58:16;;;;;;;10.63;6.23;;;;;;;8.97;100.00;100672.25;7394192;19;20983;-62
2022/12/20 11:00:48;;;;;;;11.00;6.20;;;;;;;9.05;100.00;100682.09;7391512;19;20379;-60
2022/12/20 11:03:20;;;;;;;9.90;6.80;;;;;;;9.18;100.00;100685.25;7390945;19;20396;-58
2022/12/20 11:05:58;;;;;;;10.33;5.57;;;;;;;9.25;100.00;100692.44;7393988;19;20420;-60
2022/12/20 11:08:29;;;;;;;9.00;4.60;;;;;;;9.29;100.00;100714.03;7390466;19;21175;-60
2022/12/20 11:11:17;;;;;;;10.70;6.00;;;;;;;9.43;100.00;100712.09;7393867;19;20402;-61
2022/12/20 11:13:50;;;;;;;12.80;5.97;;;;;;;9.48;100.00;100720.91;7390734;19;20418;-60
2022/12/20 11:16:30;;;;;;;8.60;4.90;;;;;;;9.57;100.00;100739.38;7392537;19;20953;-60
2022/12/20 11:19:26;;;;;;;8.93;4.70;;;;;;;9.66;100.00;100738.00;7390552;19;20422;-62
2022/12/20 11:22:01;;;;;;;10.63;4.03;;;;;;;9.66;100.00;100735.44;7391985;19;20913;-61
2022/12/20 11:24:35;;;;;;;8.37;4.90;;;;;;;9.75;100.00;100751.31;7393878;19;20395;-62
2022/12/20 11:27:18;;;;;;;9.53;4.77;;;;;;;9.80;100.00;100738.66;7390026;19;20407;-61
2022/12/20 11:30:09;;;;;;;8.00;3.97;;;;;;;9.76;100.00;100750.50;7392842;19;20421;-61
2022/12/20 11:33:01;;;;;;;7.73;4.43;;;;;;;9.91;100.00;100745.16;7390912;19;20508;-60
2022/12/20 11:35:39;;;;;;;8.03;4.03;;;;;;;9.97;100.00;100767.75;7393139;19;20399;-61
2022/12/20 11:38:14;;;;;;;6.77;4.00;;;;;;;9.94;100.00;100757.31;7391211;19;20418;-63
2022/12/20 11:40:46;;;;;;;9.33;4.43;;;;;;;9.99;100.00;100751.53;7391362;19;20774;-61
2022/12/20 11:43:30;;;;;;;11.40;4.07;;;;;;;10.04;100.00;100751.72;7387928;19;21073;-60
2022/12/20 11:46:22;;;;;;;6.20;3.20;;;;;;;10.12;100.00;100752.94;7391899;19;21065;-60
2022/12/20 11:49:14;;;;;;;6.00;3.30;;;;;;;10.12;100.00;100763.25;7391652;19;20443;-62
2022/12/20 11:51:48;;;;;;;7.90;4.00;;;;;;;10.16;100.00;100745.34;7390572;19;20380;-62
2022/12/20 11:54:23;;;;;;;5.30;2.97;;;;;;;10.11;100.00;100755.47;7391597;19;20406;-58